PWSweather.com
Personal Weather Stations
Station Observations
SHAHALMS1
Eftra, Falkenberg, HA

EftraFalkenberg, HA

Lat: 56.85, Lon: 12.65

Elevation: 140

Station Type:

http://hem.passagen.se/risarp101

High Low Average
Temperature 58.3°F14.6°C 43.7°F6.5°C 52.8°F11.6°C
Dew Point 45.6°F7.6°C 36.6°F2.6°C 42.0°F5.6°C
Winds 11.6 mph 18.7 kmh Calm Calm 7.0 mph WSW11.3 kmh WSW
Wind Gusts 36.5 mph58.7 kmh -- 18.0 mph29.0 kmh
Humidity 76% 58% 67%
Pressure 29.68 in1005.1 mb 29.59 in1002.0 mb -
Precipitation 0.09 in2.3 mm - -
Hour Temp Dew Point Humidity Winds Wind Gusts Pressure Precip Precip Rate Daily Precip Total
12:00 AM 52.7°F11.5°C 44.6°F7.0°C 74% 9.7 mph W15.6 kmh W 34.4 mph55.4 kmh 29.62 in1003.0 mb 0.00 in0.0 mm 0.00 in0.0 mm 0.00 in0.0 mm
12:15 AM 52.5°F11.4°C 44.5°F6.9°C 74% 8.8 mph W14.2 kmh W 23.3 mph37.5 kmh 29.62 in1003.0 mb 0.00 in0.0 mm 0.00 in0.0 mm 0.00 in0.0 mm
12:30 AM 52.7°F11.5°C 44.3°F6.8°C 73% 10.7 mph W17.2 kmh W 27.6 mph44.4 kmh 29.62 in1003.0 mb 0.00 in0.0 mm 0.00 in0.0 mm 0.00 in0.0 mm
12:45 AM 52.9°F11.6°C 44.1°F6.7°C 72% 9.1 mph W14.6 kmh W 17.5 mph28.2 kmh 29.65 in1004.1 mb 0.00 in0.0 mm 0.00 in0.0 mm 0.00 in0.0 mm
01:00 AM 52.9°F11.6°C 44.1°F6.7°C 72% 10.6 mph W17.1 kmh W 23.6 mph38.0 kmh 29.62 in1003.0 mb 0.00 in0.0 mm 0.00 in0.0 mm 0.00 in0.0 mm
01:15 AM 52.7°F11.5°C 43.2°F6.2°C 70% 10.3 mph WNW16.6 kmh WNW 26.8 mph43.1 kmh 29.62 in1003.0 mb 0.00 in0.0 mm 0.00 in0.0 mm 0.00 in0.0 mm
01:30 AM 52.7°F11.5°C 43.9°F6.6°C 72% 7.7 mph W12.4 kmh W 14.0 mph22.5 kmh 29.65 in1004.1 mb 0.00 in0.0 mm 0.00 in0.0 mm 0.00 in0.0 mm
01:45 AM 52.7°F11.5°C 43.9°F6.6°C 72% 7.3 mph W11.7 kmh W 23.3 mph37.5 kmh 29.62 in1003.0 mb 0.00 in0.0 mm 0.00 in0.0 mm 0.00 in0.0 mm
02:00 AM 52.9°F11.6°C 44.1°F6.7°C 72% 7.9 mph W12.7 kmh W 19.7 mph31.7 kmh 29.62 in1003.0 mb 0.00 in0.0 mm 0.00 in0.0 mm 0.00 in0.0 mm
02:15 AM 52.9°F11.6°C 43.7°F6.5°C 71% 10.1 mph W16.3 kmh W 23.6 mph38.0 kmh 29.62 in1003.0 mb 0.00 in0.0 mm 0.00 in0.0 mm 0.00 in0.0 mm
02:30 AM 52.9°F11.6°C 43.7°F6.5°C 71% 7.9 mph W12.7 kmh W 20.8 mph33.5 kmh 29.62 in1003.0 mb 0.00 in0.0 mm 0.00 in0.0 mm 0.00 in0.0 mm
02:45 AM 52.9°F11.6°C 43.4°F6.3°C 70% 9.3 mph W15.0 kmh W 23.3 mph37.5 kmh 29.62 in1003.0 mb 0.00 in0.0 mm 0.00 in0.0 mm 0.00 in0.0 mm
03:00 AM 52.9°F11.6°C 43.4°F6.3°C 70% 8.5 mph W13.7 kmh W 20.8 mph33.5 kmh 29.62 in1003.0 mb 0.00 in0.0 mm 0.00 in0.0 mm 0.00 in0.0 mm
03:15 AM 52.7°F11.5°C 43.2°F6.2°C 70% 8.7 mph W14.0 kmh W 27.9 mph44.9 kmh 29.62 in1003.0 mb 0.00 in0.0 mm 0.00 in0.0 mm 0.00 in0.0 mm
03:30 AM 52.5°F11.4°C 43.4°F6.3°C 71% 8.7 mph W14.0 kmh W 24.3 mph39.1 kmh 29.62 in1003.0 mb 0.00 in0.0 mm 0.00 in0.0 mm 0.00 in0.0 mm
03:45 AM 52.5°F11.4°C 43.0°F6.1°C 70% 9.3 mph W15.0 kmh W 23.3 mph37.5 kmh 29.62 in1003.0 mb 0.00 in0.0 mm 0.00 in0.0 mm 0.00 in0.0 mm
04:00 AM 52.7°F11.5°C 42.8°F6.0°C 69% 10.0 mph W16.1 kmh W 27.6 mph44.4 kmh 29.62 in1003.0 mb 0.00 in0.0 mm 0.00 in0.0 mm 0.00 in0.0 mm
04:16 AM 52.7°F11.5°C 43.2°F6.2°C 70% 9.0 mph W14.5 kmh W 23.6 mph38.0 kmh 29.59 in1002.0 mb 0.00 in0.0 mm 0.00 in0.0 mm 0.00 in0.0 mm
04:30 AM 52.7°F11.5°C 43.2°F6.2°C 70% 9.1 mph WNW14.6 kmh WNW 27.9 mph44.9 kmh 29.59 in1002.0 mb 0.00 in0.0 mm 0.00 in0.0 mm 0.00 in0.0 mm
04:45 AM 52.2°F11.2°C 44.1°F6.7°C 74% 8.8 mph W14.2 kmh W 19.3 mph31.1 kmh 29.59 in1002.0 mb 0.00 in0.0 mm 0.00 in0.0 mm 0.00 in0.0 mm
05:00 AM 51.6°F10.9°C 44.0°F6.7°C 75% 7.8 mph W12.6 kmh W 16.5 mph26.6 kmh 29.59 in1002.0 mb 0.00 in0.0 mm 0.00 in0.0 mm 0.00 in0.0 mm
05:15 AM 51.8°F11.0°C 43.1°F6.2°C 72% 9.4 mph W15.1 kmh W 31.9 mph51.3 kmh 29.59 in1002.0 mb 0.00 in0.0 mm 0.00 in0.0 mm 0.00 in0.0 mm
05:30 AM 52.0°F11.1°C 42.9°F6.1°C 71% 10.1 mph W16.3 kmh W 29.7 mph47.8 kmh 29.59 in1002.0 mb 0.00 in0.0 mm 0.00 in0.0 mm 0.00 in0.0 mm
05:45 AM 52.0°F11.1°C 42.1°F5.6°C 69% 11.6 mph WNW18.7 kmh WNW 27.9 mph44.9 kmh 29.59 in1002.0 mb 0.00 in0.0 mm 0.00 in0.0 mm 0.00 in0.0 mm
06:00 AM 52.2°F11.2°C 42.3°F5.7°C 69% 8.6 mph W13.8 kmh W 16.8 mph27.0 kmh 29.59 in1002.0 mb 0.00 in0.0 mm 0.00 in0.0 mm 0.00 in0.0 mm
06:15 AM 52.2°F11.2°C 41.9°F5.5°C 68% 10.4 mph W16.7 kmh W 36.5 mph58.7 kmh 29.59 in1002.0 mb 0.00 in0.0 mm 0.00 in0.0 mm 0.00 in0.0 mm
06:30 AM 52.3°F11.3°C 41.7°F5.4°C 67% 7.8 mph W12.6 kmh W 23.3 mph37.5 kmh 29.59 in1002.0 mb 0.00 in0.0 mm 0.00 in0.0 mm 0.00 in0.0 mm
06:45 AM 52.5°F11.4°C 41.9°F5.5°C 67% 9.3 mph W15.0 kmh W 27.6 mph44.4 kmh 29.59 in1002.0 mb 0.00 in0.0 mm 0.00 in0.0 mm 0.00 in0.0 mm
07:00 AM 52.5°F11.4°C 41.9°F5.5°C 67% 7.7 mph W12.4 kmh W 20.0 mph32.2 kmh 29.59 in1002.0 mb 0.00 in0.0 mm 0.00 in0.0 mm 0.00 in0.0 mm
07:15 AM 52.7°F11.5°C 42.4°F5.8°C 68% 7.8 mph W12.6 kmh W 19.0 mph30.6 kmh 29.59 in1002.0 mb 0.00 in0.0 mm 0.00 in0.0 mm 0.00 in0.0 mm
07:30 AM 52.7°F11.5°C 42.4°F5.8°C 68% 8.6 mph W13.8 kmh W 20.4 mph32.8 kmh 29.59 in1002.0 mb 0.00 in0.0 mm 0.00 in0.0 mm 0.00 in0.0 mm
07:45 AM 52.5°F11.4°C 43.0°F6.1°C 70% 7.8 mph W12.6 kmh W 15.4 mph24.8 kmh 29.62 in1003.0 mb 0.00 in0.0 mm 0.00 in0.0 mm 0.00 in0.0 mm
08:00 AM 52.3°F11.3°C 43.6°F6.4°C 72% 7.9 mph W12.7 kmh W 16.1 mph25.9 kmh 29.62 in1003.0 mb 0.00 in0.0 mm 0.00 in0.0 mm 0.00 in0.0 mm
08:15 AM 52.9°F11.6°C 43.7°F6.5°C 71% 8.9 mph W14.3 kmh W 23.6 mph38.0 kmh 29.62 in1003.0 mb 0.00 in0.0 mm 0.00 in0.0 mm 0.00 in0.0 mm
08:30 AM 53.2°F11.8°C 43.3°F6.3°C 69% 9.9 mph W15.9 kmh W 20.8 mph33.5 kmh 29.62 in1003.0 mb 0.00 in0.0 mm 0.00 in0.0 mm 0.00 in0.0 mm
08:45 AM 53.2°F11.8°C 43.3°F6.3°C 69% 9.3 mph W15.0 kmh W 27.9 mph44.9 kmh 29.62 in1003.0 mb 0.00 in0.0 mm 0.00 in0.0 mm 0.00 in0.0 mm
09:00 AM 53.6°F12.0°C 43.7°F6.5°C 69% 8.6 mph W13.8 kmh W 17.2 mph27.7 kmh 29.62 in1003.0 mb 0.00 in0.0 mm 0.00 in0.0 mm 0.00 in0.0 mm
09:15 AM 54.3°F12.4°C 44.0°F6.7°C 68% 7.3 mph W11.7 kmh W 18.3 mph29.5 kmh 29.62 in1003.0 mb 0.00 in0.0 mm 0.00 in0.0 mm 0.00 in0.0 mm
09:30 AM 54.9°F12.7°C 43.7°F6.5°C 66% 9.2 mph WNW14.8 kmh WNW 21.5 mph34.6 kmh 29.59 in1002.0 mb 0.00 in0.0 mm 0.00 in0.0 mm 0.00 in0.0 mm
09:45 AM 55.0°F12.8°C 44.3°F6.8°C 67% 7.4 mph WNW11.9 kmh WNW 16.5 mph26.6 kmh 29.62 in1003.0 mb 0.00 in0.0 mm 0.00 in0.0 mm 0.00 in0.0 mm
10:00 AM 55.2°F12.9°C 44.1°F6.7°C 66% 8.9 mph WNW14.3 kmh WNW 31.5 mph50.7 kmh 29.65 in1004.1 mb 0.00 in0.0 mm 0.00 in0.0 mm 0.00 in0.0 mm
10:15 AM 55.4°F13.0°C 43.8°F6.6°C 65% 9.6 mph W15.4 kmh W 24.7 mph39.8 kmh 29.65 in1004.1 mb 0.00 in0.0 mm 0.00 in0.0 mm 0.00 in0.0 mm
10:30 AM 55.4°F13.0°C 43.8°F6.6°C 65% 9.4 mph W15.1 kmh W 25.8 mph41.5 kmh 29.62 in1003.0 mb 0.00 in0.0 mm 0.00 in0.0 mm 0.00 in0.0 mm
10:45 AM 55.4°F13.0°C 43.4°F6.3°C 64% 7.6 mph W12.2 kmh W 27.6 mph44.4 kmh 29.59 in1002.0 mb 0.00 in0.0 mm 0.00 in0.0 mm 0.00 in0.0 mm
11:00 AM 55.9°F13.3°C 44.3°F6.8°C 65% 9.4 mph W15.1 kmh W 19.7 mph31.7 kmh 29.62 in1003.0 mb 0.00 in0.0 mm 0.00 in0.0 mm 0.00 in0.0 mm
11:15 AM 56.8°F13.8°C 44.8°F7.1°C 64% 8.7 mph W14.0 kmh W 24.7 mph39.8 kmh 29.62 in1003.0 mb 0.00 in0.0 mm 0.00 in0.0 mm 0.00 in0.0 mm
11:30 AM 56.7°F13.7°C 44.6°F7.0°C 64% 7.9 mph W12.7 kmh W 15.7 mph25.3 kmh 29.59 in1002.0 mb 0.00 in0.0 mm 0.00 in0.0 mm 0.00 in0.0 mm
11:45 AM 56.5°F13.6°C 44.4°F6.9°C 64% 9.8 mph W15.8 kmh W 31.5 mph50.7 kmh 29.62 in1003.0 mb 0.00 in0.0 mm 0.00 in0.0 mm 0.00 in0.0 mm
12:00 PM 56.8°F13.8°C 44.8°F7.1°C 64% 8.9 mph W14.3 kmh W 22.9 mph36.9 kmh 29.59 in1002.0 mb 0.00 in0.0 mm 0.00 in0.0 mm 0.00 in0.0 mm
12:16 PM 57.9°F14.4°C 45.4°F7.4°C 63% 9.1 mph W14.6 kmh W 20.4 mph32.8 kmh 29.62 in1003.0 mb 0.00 in0.0 mm 0.00 in0.0 mm 0.00 in0.0 mm
12:30 PM 58.1°F14.5°C 45.6°F7.6°C 63% 7.4 mph W11.9 kmh W 20.8 mph33.5 kmh 29.59 in1002.0 mb 0.00 in0.0 mm 0.00 in0.0 mm 0.00 in0.0 mm
12:45 PM 58.1°F14.5°C 45.6°F7.6°C 63% 8.3 mph W13.4 kmh W 20.8 mph33.5 kmh 29.62 in1003.0 mb 0.00 in0.0 mm 0.00 in0.0 mm 0.00 in0.0 mm
01:00 PM 57.0°F13.9°C 44.5°F6.9°C 63% 7.4 mph W11.9 kmh W 21.5 mph34.6 kmh 29.62 in1003.0 mb 0.00 in0.0 mm 0.00 in0.0 mm 0.00 in0.0 mm
01:15 PM 56.8°F13.8°C 44.4°F6.9°C 63% 9.3 mph W15.0 kmh W 22.9 mph36.9 kmh 29.62 in1003.0 mb 0.00 in0.0 mm 0.00 in0.0 mm 0.00 in0.0 mm
01:30 PM 57.4°F14.1°C 44.5°F6.9°C 62% 6.6 mph W10.6 kmh W 15.7 mph25.3 kmh 29.62 in1003.0 mb 0.00 in0.0 mm 0.00 in0.0 mm 0.00 in0.0 mm
01:45 PM 57.4°F14.1°C 44.0°F6.7°C 61% 8.6 mph W13.8 kmh W 21.5 mph34.6 kmh 29.62 in1003.0 mb 0.00 in0.0 mm 0.00 in0.0 mm 0.00 in0.0 mm
02:00 PM 57.9°F14.4°C 45.0°F7.2°C 62% 6.6 mph W10.6 kmh W 14.0 mph22.5 kmh 29.62 in1003.0 mb 0.00 in0.0 mm 0.00 in0.0 mm 0.00 in0.0 mm
02:15 PM 57.6°F14.2°C 43.3°F6.3°C 59% 7.3 mph W11.7 kmh W 17.5 mph28.2 kmh 29.62 in1003.0 mb 0.00 in0.0 mm 0.00 in0.0 mm 0.00 in0.0 mm
02:30 PM 58.3°F14.6°C 44.4°F6.9°C 60% 7.1 mph W11.4 kmh W 19.0 mph30.6 kmh 29.62 in1003.0 mb 0.00 in0.0 mm 0.00 in0.0 mm 0.00 in0.0 mm
02:45 PM 58.3°F14.6°C 44.4°F6.9°C 60% 7.2 mph W11.6 kmh W 17.2 mph27.7 kmh 29.65 in1004.1 mb 0.00 in0.0 mm 0.00 in0.0 mm 0.00 in0.0 mm
03:00 PM 57.6°F14.2°C 42.9°F6.1°C 58% 8.4 mph W13.5 kmh W 23.3 mph37.5 kmh 29.62 in1003.0 mb 0.00 in0.0 mm 0.00 in0.0 mm 0.00 in0.0 mm
03:15 PM 57.0°F13.9°C 42.4°F5.8°C 58% 6.9 mph W11.1 kmh W 19.3 mph31.1 kmh 29.62 in1003.0 mb 0.00 in0.0 mm 0.00 in0.0 mm 0.00 in0.0 mm
03:30 PM 56.1°F13.4°C 41.5°F5.3°C 58% 6.9 mph W11.1 kmh W 19.3 mph31.1 kmh 29.62 in1003.0 mb 0.00 in0.0 mm 0.00 in0.0 mm 0.00 in0.0 mm
03:45 PM 56.1°F13.4°C 42.0°F5.6°C 59% 6.8 mph NW10.9 kmh NW 16.1 mph25.9 kmh 29.62 in1003.0 mb 0.00 in0.0 mm 0.00 in0.0 mm 0.00 in0.0 mm
04:00 PM 55.9°F13.3°C 41.8°F5.4°C 59% 5.2 mph WNW8.4 kmh WNW 15.7 mph25.3 kmh 29.62 in1003.0 mb 0.00 in0.0 mm 0.00 in0.0 mm 0.00 in0.0 mm
04:15 PM 55.4°F13.0°C 40.9°F4.9°C 58% 5.8 mph W9.3 kmh W 16.1 mph25.9 kmh 29.59 in1002.0 mb 0.00 in0.0 mm 0.00 in0.0 mm 0.00 in0.0 mm
04:30 PM 55.0°F12.8°C 40.5°F4.7°C 58% 5.4 mph W8.7 kmh W 12.5 mph20.1 kmh 29.62 in1003.0 mb 0.00 in0.0 mm 0.00 in0.0 mm 0.00 in0.0 mm
04:45 PM 55.0°F12.8°C 41.4°F5.2°C 60% 5.5 mph W8.9 kmh W 11.5 mph18.5 kmh 29.59 in1002.0 mb 0.00 in0.0 mm 0.00 in0.0 mm 0.00 in0.0 mm
05:00 PM 54.9°F12.7°C 40.8°F4.9°C 59% 7.2 mph W11.6 kmh W 21.1 mph34.0 kmh 29.59 in1002.0 mb 0.00 in0.0 mm 0.00 in0.0 mm 0.00 in0.0 mm
05:15 PM 54.1°F12.3°C 40.1°F4.5°C 59% 7.4 mph WNW11.9 kmh WNW 14.0 mph22.5 kmh 29.59 in1002.0 mb 0.00 in0.0 mm 0.00 in0.0 mm 0.00 in0.0 mm
05:30 PM 53.6°F12.0°C 40.0°F4.4°C 60% 5.5 mph W8.9 kmh W 15.4 mph24.8 kmh 29.59 in1002.0 mb 0.00 in0.0 mm 0.00 in0.0 mm 0.00 in0.0 mm
05:45 PM 53.2°F11.8°C 40.1°F4.5°C 61% 5.4 mph W8.7 kmh W 10.7 mph17.2 kmh 29.59 in1002.0 mb 0.00 in0.0 mm 0.00 in0.0 mm 0.00 in0.0 mm
06:00 PM 52.7°F11.5°C 39.6°F4.2°C 61% 5.0 mph W8.0 kmh W 12.5 mph20.1 kmh 29.59 in1002.0 mb 0.00 in0.0 mm 0.00 in0.0 mm 0.00 in0.0 mm
06:15 PM 52.3°F11.3°C 39.3°F4.1°C 61% 4.4 mph NW7.1 kmh NW 10.0 mph16.1 kmh 29.59 in1002.0 mb 0.00 in0.0 mm 0.00 in0.0 mm 0.00 in0.0 mm
06:30 PM 51.4°F10.8°C 38.8°F3.8°C 62% 1.7 mph W2.7 kmh W 6.8 mph10.9 kmh 29.59 in1002.0 mb 0.00 in0.0 mm 0.00 in0.0 mm 0.00 in0.0 mm
06:45 PM 50.9°F10.5°C 38.3°F3.5°C 62% 2.8 mph W4.5 kmh W 7.2 mph11.6 kmh 29.59 in1002.0 mb 0.00 in0.0 mm 0.00 in0.0 mm 0.00 in0.0 mm
07:00 PM 50.2°F10.1°C 38.1°F3.4°C 63% 1.1 mph W1.8 kmh W 4.3 mph6.9 kmh 29.59 in1002.0 mb 0.00 in0.0 mm 0.00 in0.0 mm 0.00 in0.0 mm
07:15 PM 49.6°F9.8°C 38.0°F3.3°C 64% 3.4 mph WNW5.5 kmh WNW 13.6 mph21.9 kmh 29.62 in1003.0 mb 0.00 in0.0 mm 0.00 in0.0 mm 0.00 in0.0 mm
07:30 PM 49.8°F9.9°C 38.1°F3.4°C 64% 0.5 mph W0.8 kmh W 6.1 mph9.8 kmh 29.62 in1003.0 mb 0.00 in0.0 mm 0.00 in0.0 mm 0.00 in0.0 mm
07:45 PM 49.6°F9.8°C 38.3°F3.5°C 65% 2.4 mph W3.9 kmh W 5.4 mph8.7 kmh 29.62 in1003.0 mb 0.00 in0.0 mm 0.00 in0.0 mm 0.00 in0.0 mm
08:00 PM 49.5°F9.7°C 38.2°F3.4°C 65% 3.0 mph W4.8 kmh W 9.7 mph15.6 kmh 29.62 in1003.0 mb 0.00 in0.0 mm 0.00 in0.0 mm 0.00 in0.0 mm
08:16 PM 49.5°F9.7°C 38.2°F3.4°C 65% 2.2 mph W3.5 kmh W 7.9 mph12.7 kmh 29.62 in1003.0 mb 0.00 in0.0 mm 0.00 in0.0 mm 0.00 in0.0 mm
08:30 PM 49.3°F9.6°C 38.0°F3.3°C 65% 2.2 mph W3.5 kmh W 9.3 mph15.0 kmh 29.62 in1003.0 mb 0.00 in0.0 mm 0.00 in0.0 mm 0.00 in0.0 mm
08:45 PM 49.8°F9.9°C 38.9°F3.8°C 66% 4.6 mph W7.4 kmh W 16.5 mph26.6 kmh 29.59 in1002.0 mb 0.00 in0.0 mm 0.00 in0.0 mm 0.00 in0.0 mm
09:00 PM 48.4°F9.1°C 37.5°F3.1°C 66% 1.9 mph W3.1 kmh W 6.8 mph10.9 kmh 29.65 in1004.1 mb 0.00 in0.0 mm 0.00 in0.0 mm 0.00 in0.0 mm
09:15 PM 47.3°F8.5°C 37.3°F2.9°C 68% Calm Calm -- 29.62 in1003.0 mb 0.00 in0.0 mm 0.00 in0.0 mm 0.00 in0.0 mm
09:30 PM 47.1°F8.4°C 38.2°F3.4°C 71% Calm Calm -- 29.65 in1004.1 mb 0.00 in0.0 mm 0.00 in0.0 mm 0.00 in0.0 mm
09:45 PM 47.3°F8.5°C 39.4°F4.1°C 74% 1.2 mph NNW1.9 kmh NNW 10.0 mph16.1 kmh 29.62 in1003.0 mb 0.00 in0.0 mm 0.00 in0.0 mm 0.00 in0.0 mm
10:00 PM 46.9°F8.3°C 38.7°F3.7°C 73% 7.9 mph N12.7 kmh N 9.7 mph15.6 kmh 29.62 in1003.0 mb 0.05 in1.3 mm 0.07 in1.8 mm 0.05 in1.3 mm
10:15 PM 46.2°F7.9°C 38.4°F3.6°C 74% Calm Calm -- 29.62 in1003.0 mb 0.09 in2.3 mm 0.16 in4.1 mm 0.09 in2.3 mm
10:30 PM 45.5°F7.5°C 38.0°F3.3°C 75% Calm Calm -- 29.59 in1002.0 mb 0.09 in2.3 mm 0.00 in0.0 mm 0.09 in2.3 mm
10:45 PM 44.6°F7.0°C 37.5°F3.1°C 76% Calm Calm -- 29.59 in1002.0 mb 0.09 in2.3 mm 0.00 in0.0 mm 0.09 in2.3 mm
11:00 PM 43.7°F6.5°C 36.6°F2.6°C 76% 0.2 mph SE0.3 kmh SE 5.0 mph8.0 kmh 29.62 in1003.0 mb 0.05 in1.3 mm 0.00 in0.0 mm 0.09 in2.3 mm
11:15 PM 45.1°F7.3°C 38.0°F3.3°C 76% 2.9 mph NW4.7 kmh NW 13.6 mph21.9 kmh 29.65 in1004.1 mb 0.00 in0.0 mm 0.00 in0.0 mm 0.09 in2.3 mm
11:30 PM 45.9°F7.7°C 38.7°F3.7°C 76% 3.6 mph NW5.8 kmh NW 13.6 mph21.9 kmh 29.68 in1005.1 mb 0.00 in0.0 mm 0.00 in0.0 mm 0.09 in2.3 mm
11:45 PM 45.9°F7.7°C 38.7°F3.7°C 76% 8.4 mph NW13.5 kmh NW 10.4 mph16.7 kmh 29.68 in1005.1 mb 0.00 in0.0 mm 0.00 in0.0 mm 0.09 in2.3 mm